createdAt,value
2019-05-02T00:01:41.059Z,100446.58
2019-05-02T00:04:12.513Z,100438.92
2019-05-02T00:06:46.431Z,100432.57
2019-05-02T00:09:16.913Z,100428.35
2019-05-02T00:11:58.295Z,100428.61
2019-05-02T00:14:19.593Z,100420.16
2019-05-02T00:16:50.511Z,100422.68
2019-05-02T00:19:21.083Z,100414.44
2019-05-02T00:21:51.545Z,100410.59
2019-05-02T00:24:22.089Z,100406.08
2019-05-02T00:26:56.050Z,100403.17
2019-05-02T00:29:25.055Z,100407.86
2019-05-02T00:31:55.574Z,100409.39
2019-05-02T00:34:26.029Z,100404.36
2019-05-02T00:36:56.491Z,100402.08
2019-05-02T00:39:26.989Z,100401.90
2019-05-02T00:41:57.437Z,100393.90
2019-05-02T00:44:27.902Z,100398.08
2019-05-02T00:47:06.073Z,100395.78
2019-05-02T00:49:36.668Z,100392.30
2019-05-02T00:52:07.292Z,100390.54
2019-05-02T00:54:37.828Z,100380.39
2019-05-02T00:57:08.202Z,100378.58
2019-05-02T00:59:42.426Z,100383.16
2019-05-02T01:02:26.419Z,100380.77
2019-05-02T01:04:59.258Z,100373.48
2019-05-02T01:07:29.183Z,100361.31
2019-05-02T01:09:59.674Z,100351.66
2019-05-02T01:12:30.263Z,100357.61
2019-05-02T01:15:03.452Z,100355.33
2019-05-02T01:17:32.939Z,100352.85
2019-05-02T01:20:03.453Z,100348.41
2019-05-02T01:22:33.970Z,100356.52
2019-05-02T01:25:04.616Z,100342.39
2019-05-02T01:27:54.026Z,100335.47
2019-05-02T01:30:46.239Z,100348.22
2019-05-02T01:33:41.656Z,100332.19
2019-05-02T01:36:15.536Z,100333.21
2019-05-02T01:38:48.293Z,100335.72
2019-05-02T01:41:18.759Z,100326.22
2019-05-02T01:43:49.234Z,100329.13
2019-05-02T01:46:22.330Z,100324.19
2019-05-02T01:48:51.914Z,100320.70
2019-05-02T01:51:22.425Z,100308.61
2019-05-02T01:53:52.945Z,100311.94
2019-05-02T01:56:23.447Z,100313.31
2019-05-02T01:58:57.694Z,100305.58
2019-05-02T02:01:26.145Z,100302.50
2019-05-02T02:03:56.634Z,100298.08
2019-05-02T02:06:27.124Z,100296.42
2019-05-02T02:08:57.708Z,100293.80
2019-05-02T02:11:33.449Z,100295.92
2019-05-02T02:14:00.407Z,100280.48
2019-05-02T02:16:35.314Z,100288.44
2019-05-02T02:19:10.655Z,100280.09
2019-05-02T02:22:03.007Z,100271.92
2019-05-02T02:24:36.917Z,100263.55
2019-05-02T02:27:07.462Z,100260.48
2019-05-02T02:29:38.997Z,100258.47
2019-05-02T02:32:10.478Z,100245.45
2019-05-02T02:34:41.010Z,100250.20
2019-05-02T02:37:14.652Z,100245.31
2019-05-02T02:39:48.551Z,100235.55
2019-05-02T02:42:15.915Z,100244.14
2019-05-02T02:44:55.048Z,100243.04
2019-05-02T02:47:25.558Z,100243.33
2019-05-02T02:50:02.719Z,100235.44
2019-05-02T02:52:28.260Z,100231.41
2019-05-02T02:54:58.830Z,100238.88
2019-05-02T02:57:29.261Z,100230.63
2019-05-02T03:00:07.533Z,100218.11
2019-05-02T03:02:32.028Z,100223.25
2019-05-02T03:05:02.490Z,100238.61
2019-05-02T03:07:32.980Z,100222.98
2019-05-02T03:10:06.276Z,100216.62
2019-05-02T03:12:57.974Z,100220.61
2019-05-02T03:15:30.602Z,100209.73
2019-05-02T03:18:02.126Z,100206.55
2019-05-02T03:20:40.070Z,100206.30
2019-05-02T03:23:05.993Z,100208.30
2019-05-02T03:25:49.747Z,100199.97
2019-05-02T03:28:17.800Z,100199.80
2019-05-02T03:30:40.908Z,100197.16
2019-05-02T03:33:12.510Z,100192.73
2019-05-02T03:35:48.768Z,100199.11
2019-05-02T03:38:16.457Z,100209.14
2019-05-02T03:40:46.944Z,100194.39
2019-05-02T03:43:19.111Z,100193.20
2019-05-02T03:45:49.723Z,100190.87
2019-05-02T03:48:25.765Z,100188.15
2019-05-02T03:50:52.422Z,100184.91
2019-05-02T03:53:25.206Z,100190.27
2019-05-02T03:55:55.657Z,100185.73
2019-05-02T03:58:26.500Z,100180.88
2019-05-02T04:01:01.544Z,100185.67
2019-05-02T04:03:34.321Z,100178.19
2019-05-02T04:06:02.340Z,100175.77
2019-05-02T04:08:34.206Z,100178.95
2019-05-02T04:11:37.874Z,100174.16
2019-05-02T04:13:59.860Z,100162.44
2019-05-02T04:16:31.522Z,100168.12
2019-05-02T04:19:03.750Z,100169.52
2019-05-02T04:21:36.501Z,100175.89
2019-05-02T04:24:13.671Z,100169.39
2019-05-02T04:26:52.057Z,100170.62
2019-05-02T04:29:13.319Z,100172.23
2019-05-02T04:31:43.732Z,100175.34
2019-05-02T04:34:17.476Z,100175.21
2019-05-02T04:36:47.240Z,100176.87
2019-05-02T04:39:21.593Z,100179.98
2019-05-02T04:41:50.879Z,100172.36
2019-05-02T04:44:21.390Z,100172.43
2019-05-02T04:46:51.903Z,100179.92
2019-05-02T04:49:32.817Z,100181.50
2019-05-02T04:52:04.787Z,100172.92
2019-05-02T04:54:31.825Z,100175.69
2019-05-02T04:57:02.356Z,100174.91
2019-05-02T04:59:33.285Z,100173.13
2019-05-02T05:02:03.514Z,100178.95
2019-05-02T05:04:42.292Z,100176.31
2019-05-02T05:07:09.093Z,100168.06
2019-05-02T05:09:39.938Z,100167.59
2019-05-02T05:12:11.020Z,100174.66
2019-05-02T05:14:43.311Z,100174.91
2019-05-02T05:17:13.680Z,100168.41
2019-05-02T05:19:44.219Z,100176.10
2019-05-02T05:22:14.669Z,100173.00
2019-05-02T05:24:52.365Z,100168.70
2019-05-02T05:27:23.182Z,100176.61
2019-05-02T05:29:58.854Z,100176.66
2019-05-02T05:32:28.057Z,100167.80
2019-05-02T05:35:03.197Z,100175.22
2019-05-02T05:37:30.455Z,100173.56
2019-05-02T05:40:00.950Z,100176.95
2019-05-02T05:42:33.442Z,100176.45
2019-05-02T05:45:08.993Z,100175.48
2019-05-02T05:47:37.828Z,100173.90
2019-05-02T05:50:09.038Z,100159.41
2019-05-02T05:52:42.407Z,100165.31
2019-05-02T05:55:12.804Z,100172.84
2019-05-02T05:57:44.015Z,100165.31
2019-05-02T06:00:18.736Z,100170.02
2019-05-02T06:02:53.722Z,100158.16
2019-05-02T06:05:19.878Z,100160.50
2019-05-02T06:07:50.332Z,100154.69
2019-05-02T06:10:20.704Z,100156.68
2019-05-02T06:12:51.112Z,100156.18
2019-05-02T06:15:21.612Z,100149.99
2019-05-02T06:17:52.141Z,100155.64
2019-05-02T06:20:25.668Z,100140.86
2019-05-02T06:22:59.734Z,100153.00
2019-05-02T06:25:34.401Z,100148.00
2019-05-02T06:28:00.290Z,100159.05
2019-05-02T06:30:32.389Z,100158.41
2019-05-02T06:33:02.976Z,100158.34
2019-05-02T06:35:33.432Z,100155.00
2019-05-02T06:38:03.903Z,100158.14
2019-05-02T06:40:34.420Z,100149.38
2019-05-02T06:43:09.695Z,100155.27
2019-05-02T06:45:39.316Z,100148.13
2019-05-02T06:48:16.779Z,100140.53
2019-05-02T06:50:41.531Z,100149.31
2019-05-02T06:53:12.020Z,100147.59
2019-05-02T06:55:42.505Z,100146.88
2019-05-02T06:58:12.998Z,100143.36
2019-05-02T07:00:56.470Z,100137.31
2019-05-02T07:03:16.179Z,100144.38
2019-05-02T07:05:49.038Z,100140.02
2019-05-02T07:08:19.086Z,100146.07
2019-05-02T07:10:49.839Z,100147.32
2019-05-02T07:13:20.358Z,100145.36
2019-05-02T07:15:58.303Z,100155.09
2019-05-02T07:18:30.467Z,100149.75
2019-05-02T07:21:01.431Z,100151.34
2019-05-02T07:23:32.169Z,100147.73
2019-05-02T07:26:02.733Z,100139.68
2019-05-02T07:28:33.180Z,100147.25
2019-05-02T07:31:06.587Z,100148.93
2019-05-02T07:33:37.551Z,100156.84
2019-05-02T07:36:08.171Z,100156.00
2019-05-02T07:38:38.637Z,100153.72
2019-05-02T07:41:09.126Z,100156.41
2019-05-02T07:43:39.584Z,100143.73
2019-05-02T07:46:10.054Z,100151.78
2019-05-02T07:48:43.540Z,100149.82
2019-05-02T07:51:17.333Z,100151.48
2019-05-02T07:53:48.482Z,100147.20
2019-05-02T07:56:19.008Z,100149.77
2019-05-02T07:58:49.540Z,100147.95
2019-05-02T08:01:20.088Z,100136.86
2019-05-02T08:03:50.556Z,100142.05
2019-05-02T08:06:34.344Z,100148.02
2019-05-02T08:08:53.283Z,100147.20
2019-05-02T08:11:23.741Z,100141.93
2019-05-02T08:13:55.502Z,100144.64
2019-05-02T08:16:27.336Z,100153.84
2019-05-02T08:19:01.301Z,100136.92
2019-05-02T08:21:32.606Z,100141.50
2019-05-02T08:24:03.682Z,100138.81
2019-05-02T08:27:02.288Z,100139.42
2019-05-02T08:29:32.956Z,100141.94
2019-05-02T08:32:03.430Z,100137.48
2019-05-02T08:34:33.930Z,100142.47
2019-05-02T08:37:04.990Z,100149.13
2019-05-02T08:39:35.584Z,100142.67
2019-05-02T08:42:06.624Z,100147.74
2019-05-02T08:44:49.635Z,100145.79
2019-05-02T08:47:48.880Z,100146.78
2019-05-02T08:50:19.354Z,100144.55
2019-05-02T08:52:49.820Z,100147.61
2019-05-02T08:55:20.267Z,100141.84
2019-05-02T08:57:50.738Z,100151.69
2019-05-02T09:00:21.205Z,100140.88
2019-05-02T09:02:51.705Z,100135.34
2019-05-02T09:05:22.155Z,100135.34
2019-05-02T09:07:52.667Z,100134.86
2019-05-02T09:10:23.139Z,100140.95
2019-05-02T09:12:53.576Z,100136.23
2019-05-02T09:15:24.071Z,100140.52
2019-05-02T09:17:56.481Z,100138.72
2019-05-02T09:20:26.740Z,100142.25
2019-05-02T09:22:57.271Z,100144.95
2019-05-02T09:25:27.955Z,100146.20
2019-05-02T09:27:58.463Z,100140.95
2019-05-02T09:30:29.139Z,100141.63
2019-05-02T09:33:04.842Z,100143.02
2019-05-02T09:35:32.830Z,100134.97
2019-05-02T09:38:03.444Z,100136.70
2019-05-02T09:40:33.950Z,100139.84
2019-05-02T09:43:04.888Z,100134.98
2019-05-02T09:45:37.308Z,100136.00
2019-05-02T09:48:08.412Z,100135.05
2019-05-02T09:50:38.868Z,100128.69
2019-05-02T09:53:13.006Z,100133.09
2019-05-02T09:55:49.554Z,100125.78
2019-05-02T09:58:19.452Z,100121.63
2019-05-02T10:01:06.878Z,100119.12
2019-05-02T10:03:37.449Z,100118.72
2019-05-02T10:06:08.433Z,100123.59
2019-05-02T10:08:43.431Z,100123.99
2019-05-02T10:11:16.636Z,100120.24
2019-05-02T10:13:44.772Z,100118.78
2019-05-02T10:16:17.921Z,100115.50
2019-05-02T10:18:47.440Z,100118.73
2019-05-02T10:21:17.997Z,100110.41
2019-05-02T10:23:51.746Z,100103.67
2019-05-02T10:26:24.582Z,100108.55
2019-05-02T10:28:53.446Z,100104.93
2019-05-02T10:31:27.488Z,100100.05
2019-05-02T10:33:56.172Z,100096.62
2019-05-02T10:36:26.751Z,100096.00
2019-05-02T10:38:59.236Z,100084.33
2019-05-02T10:41:33.560Z,100080.22
2019-05-02T10:44:02.228Z,100079.54
2019-05-02T10:46:38.677Z,100084.53
2019-05-02T10:49:18.650Z,100079.59
2019-05-02T10:51:51.821Z,100089.38
2019-05-02T10:54:23.102Z,100080.48
2019-05-02T10:56:53.876Z,100078.31
2019-05-02T10:59:24.393Z,100089.23
2019-05-02T11:02:06.151Z,100078.28
2019-05-02T11:04:39.690Z,100077.69
2019-05-02T11:07:11.963Z,100070.62
2019-05-02T11:09:42.602Z,100059.58
2019-05-02T11:12:16.431Z,100056.50
2019-05-02T11:14:53.954Z,100054.39
2019-05-02T11:17:29.278Z,100054.53
2019-05-02T11:20:08.302Z,100056.33
2019-05-02T11:22:38.871Z,100054.53
2019-05-02T11:25:09.504Z,100052.16
2019-05-02T11:27:41.799Z,100058.27
2019-05-02T11:30:16.886Z,100050.56
2019-05-02T11:32:45.858Z,100041.04
2019-05-02T11:35:16.325Z,100047.16
2019-05-02T11:37:46.832Z,100053.63
2019-05-02T11:40:17.462Z,100038.58
2019-05-02T11:42:48.661Z,100039.32
2019-05-02T11:45:19.164Z,100046.36
2019-05-02T11:47:49.727Z,100037.49
2019-05-02T11:50:22.038Z,100041.88
2019-05-02T11:52:52.515Z,100046.54
2019-05-02T11:55:27.368Z,100040.83
2019-05-02T11:57:55.390Z,100041.04
2019-05-02T12:00:25.869Z,100039.20
2019-05-02T12:03:17.424Z,100040.89
2019-05-02T12:05:47.946Z,100033.77
2019-05-02T12:08:18.429Z,100020.70
2019-05-02T12:10:49.078Z,100018.30
2019-05-02T12:13:19.593Z,100021.27
2019-05-02T12:15:51.919Z,100022.27
2019-05-02T12:18:23.331Z,100029.66
2019-05-02T12:20:53.963Z,100015.42
2019-05-02T12:23:24.480Z,100008.95
2019-05-02T12:25:55.194Z,100007.08
2019-05-02T12:28:25.690Z,100008.95
2019-05-02T12:30:56.204Z,100003.08
2019-05-02T12:33:29.393Z,99997.80
2019-05-02T12:35:59.896Z,99999.08
2019-05-02T12:38:32.347Z,100008.80
2019-05-02T12:41:02.802Z,100002.48
2019-05-02T12:43:33.293Z,99997.83
2019-05-02T12:46:03.844Z,99998.15
2019-05-02T12:48:34.360Z,100006.78
2019-05-02T12:51:04.903Z,100003.37
2019-05-02T12:53:35.380Z,99999.92
2019-05-02T12:56:05.892Z,99993.90
2019-05-02T12:58:36.398Z,99993.27
2019-05-02T13:01:06.965Z,99991.63
2019-05-02T13:03:55.101Z,99994.30
2019-05-02T13:06:25.773Z,99988.50
2019-05-02T13:08:56.250Z,99994.52
2019-05-02T13:11:36.837Z,99984.45
2019-05-02T13:14:18.519Z,99992.98
2019-05-02T13:16:40.447Z,99994.30
2019-05-02T13:19:11.955Z,99990.30
2019-05-02T13:22:13.663Z,99995.63
2019-05-02T13:25:03.141Z,99979.95
2019-05-02T13:27:43.383Z,99988.78
2019-05-02T13:30:10.071Z,99990.73
2019-05-02T13:32:42.983Z,99996.95
2019-05-02T13:35:24.751Z,99979.91
2019-05-02T13:37:57.835Z,99986.70
2019-05-02T13:40:33.123Z,99966.22
2019-05-02T13:43:03.654Z,99976.34
2019-05-02T13:45:53.203Z,99963.72
2019-05-02T13:48:23.735Z,99963.01
2019-05-02T13:50:54.341Z,99972.67
2019-05-02T13:53:24.957Z,99952.05
2019-05-02T13:56:15.098Z,99951.47
2019-05-02T13:58:45.675Z,99943.84
2019-05-02T14:01:17.739Z,99944.34
2019-05-02T14:03:48.335Z,99945.50
2019-05-02T14:06:22.032Z,99945.25
2019-05-02T14:08:59.828Z,99941.11
2019-05-02T14:11:44.385Z,99936.62
2019-05-02T14:14:14.864Z,99944.02
2019-05-02T14:16:45.382Z,99938.74
2019-05-02T14:19:15.891Z,99943.70
2019-05-02T14:21:46.380Z,99944.21
2019-05-02T14:24:18.561Z,99936.09
2019-05-02T14:26:49.091Z,99942.27
2019-05-02T14:29:19.566Z,99943.76
2019-05-02T14:31:51.819Z,99934.34
2019-05-02T14:34:28.177Z,99934.02
2019-05-02T14:36:59.458Z,99920.36
2019-05-02T14:39:32.476Z,99921.37
2019-05-02T14:42:03.020Z,99922.53
2019-05-02T14:45:01.397Z,99915.06
2019-05-02T14:47:10.075Z,99912.76
2019-05-02T14:49:38.332Z,99908.62
2019-05-02T14:52:08.918Z,99907.30
2019-05-02T14:54:43.865Z,99906.16
2019-05-02T14:57:17.264Z,99897.22
2019-05-02T14:59:50.463Z,99893.56
2019-05-02T15:02:53.603Z,99895.02
2019-05-02T15:05:29.585Z,99904.36
2019-05-02T15:08:01.197Z,99896.73
2019-05-02T15:10:28.795Z,99900.65
2019-05-02T15:13:00.105Z,99890.50
2019-05-02T15:15:33.631Z,99901.56
2019-05-02T15:18:07.992Z,99900.16
2019-05-02T15:20:39.296Z,99900.23
2019-05-02T15:23:14.460Z,99896.27
2019-05-02T15:25:42.354Z,99894.97
2019-05-02T15:28:19.487Z,99901.73
2019-05-02T15:31:05.075Z,99907.05
2019-05-02T15:33:42.057Z,99921.42
2019-05-02T15:36:12.429Z,99907.78
2019-05-02T15:38:47.352Z,99909.03
2019-05-02T15:41:15.512Z,99906.61
2019-05-02T15:43:49.246Z,99909.20
2019-05-02T15:46:23.831Z,99922.67
2019-05-02T15:48:51.985Z,99920.98
2019-05-02T15:51:23.086Z,99931.38
2019-05-02T15:54:06.023Z,99937.15
2019-05-02T15:56:32.328Z,99939.23
2019-05-02T15:59:06.183Z,99937.52
2019-05-02T16:01:48.097Z,99941.76
2019-05-02T16:04:24.065Z,99942.34
2019-05-02T16:06:53.105Z,99948.94
2019-05-02T16:09:23.633Z,99949.66
2019-05-02T16:11:56.919Z,99948.76
2019-05-02T16:14:27.036Z,99965.39
2019-05-02T16:17:01.057Z,99958.82
2019-05-02T16:19:32.992Z,99960.00
2019-05-02T16:22:17.289Z,99971.55
2019-05-02T16:24:51.014Z,99970.70
2019-05-02T16:27:25.855Z,99977.52
2019-05-02T16:29:58.269Z,99980.23
2019-05-02T16:32:38.487Z,99979.30
2019-05-02T16:35:13.556Z,99986.46
2019-05-02T16:37:42.080Z,99992.11
2019-05-02T16:40:13.523Z,99986.81
2019-05-02T16:42:44.035Z,99981.93
2019-05-02T16:45:16.495Z,99989.61
2019-05-02T16:47:49.783Z,99982.19
2019-05-02T16:50:19.570Z,99978.33
2019-05-02T16:52:53.329Z,99981.84
2019-05-02T16:55:26.596Z,99982.35
2019-05-02T16:58:05.287Z,99990.03
2019-05-02T17:00:29.504Z,99990.58
2019-05-02T17:03:03.515Z,99988.16
2019-05-02T17:05:32.582Z,99987.36
2019-05-02T17:08:22.557Z,99992.45
2019-05-02T17:10:57.165Z,99982.86
2019-05-02T17:13:32.074Z,99989.82
2019-05-02T17:16:04.926Z,99986.72
2019-05-02T17:18:32.706Z,99988.20
2019-05-02T17:21:03.315Z,99978.83
2019-05-02T17:23:37.521Z,99987.44
2019-05-02T17:26:06.049Z,99986.12
2019-05-02T17:28:37.966Z,99985.36
2019-05-02T17:31:10.774Z,99977.46
2019-05-02T17:33:41.697Z,99986.62
2019-05-02T17:36:12.490Z,99981.14
2019-05-02T17:38:42.961Z,99987.30
2019-05-02T17:41:13.427Z,99997.69
2019-05-02T17:43:43.980Z,99996.51
2019-05-02T17:46:18.287Z,99979.14
2019-05-02T17:48:47.700Z,99984.95
2019-05-02T17:51:44.090Z,99988.43
2019-05-02T17:54:17.453Z,99993.81
2019-05-02T17:56:47.113Z,99990.48
2019-05-02T17:59:17.599Z,99991.55
2019-05-02T18:01:48.104Z,99985.92
2019-05-02T18:04:18.920Z,99989.92
2019-05-02T18:06:52.328Z,99987.76
2019-05-02T18:09:21.731Z,99993.25
2019-05-02T18:11:52.197Z,100003.13
2019-05-02T18:14:24.083Z,100000.23
2019-05-02T18:16:55.682Z,99995.05
2019-05-02T18:19:26.489Z,100005.71
2019-05-02T18:21:58.098Z,100000.92
2019-05-02T18:24:29.398Z,99993.25
2019-05-02T18:26:59.857Z,100005.45
2019-05-02T18:29:36.225Z,100015.01
2019-05-02T18:32:04.623Z,100015.69
2019-05-02T18:34:35.144Z,100013.51
2019-05-02T18:37:06.412Z,100018.95
2019-05-02T18:39:44.730Z,100018.32
2019-05-02T18:42:09.311Z,100019.63
2019-05-02T18:44:39.832Z,100022.64
2019-05-02T18:47:12.523Z,100022.90
2019-05-02T18:49:42.623Z,100025.69
2019-05-02T18:52:13.436Z,100031.30
2019-05-02T18:54:51.663Z,100035.25
2019-05-02T18:57:25.966Z,100031.22
2019-05-02T18:59:56.481Z,100034.20
2019-05-02T19:02:32.555Z,100039.11
2019-05-02T19:04:59.078Z,100038.51
2019-05-02T19:07:33.059Z,100042.72
2019-05-02T19:10:05.701Z,100049.25
2019-05-02T19:12:34.181Z,100045.34
2019-05-02T19:15:07.027Z,100046.92
2019-05-02T19:17:39.218Z,100050.19
2019-05-02T19:20:39.264Z,100048.95
2019-05-02T19:23:09.872Z,100053.42
2019-05-02T19:25:40.397Z,100053.08
2019-05-02T19:28:17.473Z,100059.10
2019-05-02T19:30:48.068Z,100056.21
2019-05-02T19:33:20.994Z,100056.69
2019-05-02T19:35:52.612Z,100068.70
2019-05-02T19:38:26.234Z,100066.61
2019-05-02T19:40:58.137Z,100067.50
2019-05-02T19:43:28.132Z,100070.05
2019-05-02T19:45:58.855Z,100072.24
2019-05-02T19:48:32.901Z,100072.20
2019-05-02T19:51:02.454Z,100072.95
2019-05-02T19:53:34.283Z,100080.45
2019-05-02T19:56:06.768Z,100078.47
2019-05-02T19:58:42.737Z,100090.40
2019-05-02T20:01:09.780Z,100089.09
2019-05-02T20:03:42.299Z,100090.78
2019-05-02T20:06:12.901Z,100090.47
2019-05-02T20:08:43.462Z,100087.03
2019-05-02T20:11:14.255Z,100092.66
2019-05-02T20:13:44.803Z,100091.98
2019-05-02T20:16:26.568Z,100098.02
2019-05-02T20:18:57.022Z,100095.92
2019-05-02T20:21:48.062Z,100099.67
2019-05-02T20:24:19.572Z,100097.92
2019-05-02T20:26:52.405Z,100093.58
2019-05-02T20:29:22.434Z,100094.57
2019-05-02T20:31:53.004Z,100106.40
2019-05-02T20:34:23.569Z,100099.26
2019-05-02T20:36:54.416Z,100103.08
2019-05-02T20:39:24.879Z,100095.20
2019-05-02T20:41:55.397Z,100107.33
2019-05-02T20:44:25.934Z,100109.65
2019-05-02T20:46:56.404Z,100112.61
2019-05-02T20:49:26.904Z,100116.23
2019-05-02T20:51:57.543Z,100123.42
2019-05-02T20:54:28.155Z,100120.34
2019-05-02T20:56:58.636Z,100130.30
2019-05-02T20:59:29.164Z,100120.48
2019-05-02T21:02:01.573Z,100121.11
2019-05-02T21:04:31.969Z,100125.80
2019-05-02T21:07:10.627Z,100133.10
2019-05-02T21:10:01.940Z,100130.94
2019-05-02T21:12:32.574Z,100137.39
2019-05-02T21:15:03.074Z,100136.32
2019-05-02T21:17:33.577Z,100142.88
2019-05-02T21:20:04.560Z,100139.95
2019-05-02T21:22:36.429Z,100137.10
2019-05-02T21:25:07.512Z,100135.91
2019-05-02T21:27:38.063Z,100137.84
2019-05-02T21:30:09.736Z,100136.76
2019-05-02T21:32:40.242Z,100140.12
2019-05-02T21:35:11.880Z,100142.51
2019-05-02T21:37:42.581Z,100145.86
2019-05-02T21:40:13.467Z,100148.25
2019-05-02T21:42:43.951Z,100142.54
2019-05-02T21:45:15.371Z,100149.22
2019-05-02T21:47:45.869Z,100137.91
2019-05-02T21:50:26.808Z,100147.20
2019-05-02T21:53:19.065Z,100151.85
2019-05-02T21:56:07.730Z,100155.90
2019-05-02T21:58:38.265Z,100153.66
2019-05-02T22:01:12.910Z,100158.89
2019-05-02T22:03:43.420Z,100160.20
2019-05-02T22:06:13.877Z,100162.64
2019-05-02T22:08:44.332Z,100158.77
2019-05-02T22:11:14.878Z,100157.41
2019-05-02T22:13:45.363Z,100166.71
2019-05-02T22:16:15.812Z,100162.05
2019-05-02T22:18:46.323Z,100170.39
2019-05-02T22:21:16.792Z,100166.44
2019-05-02T22:23:47.254Z,100166.21
2019-05-02T22:26:17.768Z,100170.49
2019-05-02T22:28:48.302Z,100169.16
2019-05-02T22:31:18.763Z,100163.09
2019-05-02T22:33:49.285Z,100175.97
2019-05-02T22:36:21.741Z,100175.34
2019-05-02T22:38:56.802Z,100175.34
2019-05-02T22:41:27.272Z,100172.35
2019-05-02T22:43:57.742Z,100169.10
2019-05-02T22:46:43.125Z,100175.30
2019-05-02T22:49:15.109Z,100174.86
2019-05-02T22:51:45.788Z,100176.39
2019-05-02T22:54:26.700Z,100179.83
2019-05-02T22:56:48.446Z,100175.30
2019-05-02T22:59:18.941Z,100179.94
2019-05-02T23:01:49.410Z,100180.53
2019-05-02T23:04:23.288Z,100172.54
2019-05-02T23:06:52.914Z,100173.84
2019-05-02T23:09:23.586Z,100174.09
2019-05-02T23:11:54.077Z,100175.19
2019-05-02T23:14:24.574Z,100179.83
2019-05-02T23:16:55.097Z,100178.88
2019-05-02T23:19:25.552Z,100175.92
2019-05-02T23:21:56.009Z,100175.70
2019-05-02T23:24:48.214Z,100180.70
2019-05-02T23:27:35.023Z,100188.66
2019-05-02T23:30:07.833Z,100186.52
2019-05-02T23:32:38.324Z,100186.05
2019-05-02T23:35:09.608Z,100182.42
2019-05-02T23:37:41.813Z,100181.00
2019-05-02T23:40:12.539Z,100186.10
2019-05-02T23:42:43.037Z,100184.70
2019-05-02T23:45:13.644Z,100183.64
2019-05-02T23:47:44.118Z,100179.36
2019-05-02T23:50:14.756Z,100185.42
2019-05-02T23:52:45.147Z,100194.23
2019-05-02T23:55:15.770Z,100180.65
2019-05-02T23:57:46.252Z,100182.52
